Time;durP1;ratioP1;P1;durP2;ratioP2;P2;SDS_P1;SDS_P2;PMS_P1;PMS_P2;Temp;Humidity;BMP_temperature;BMP_pressure;BME280_temperature;BME280_humidity;BME280_pressure;Samples;Min_cycle;Max_cycle;Signal;HPM_P1;HPM_P2
2023/06/15 00:00:24;;;;;;;3.30;3.00;;;;;;;;;;5092442;28;20249;-27
2023/06/15 00:02:51;;;;;;;2.90;2.70;;;;;;;;;;5087212;28;20211;-28
2023/06/15 00:05:19;;;;;;;3.53;3.23;;;;;;;;;;5085156;28;20238;-29
2023/06/15 00:07:47;;;;;;;3.07;2.77;;;;;;;;;;5089346;28;20200;-25
2023/06/15 00:10:14;;;;;;;4.03;3.20;;;;;;;;;;5090652;28;20219;-28
2023/06/15 00:12:42;;;;;;;4.07;3.27;;;;;;;;;;5087210;28;20412;-28
2023/06/15 00:15:09;;;;;;;3.87;3.07;;;;;;;;;;5073669;28;20250;-28
2023/06/15 00:17:37;;;;;;;3.07;2.87;;;;;;;;;;5077782;28;20283;-29
2023/06/15 00:20:06;;;;;;;3.17;2.97;;;;;;;;;;5096360;28;20216;-27
2023/06/15 00:22:34;;;;;;;3.80;3.40;;;;;;;;;;5079822;28;20199;-27
2023/06/15 00:25:03;;;;;;;4.10;3.10;;;;;;;;;;5085340;28;20262;-28
2023/06/15 00:27:30;;;;;;;3.40;3.00;;;;;;;;;;5093427;28;20208;-29
2023/06/15 00:29:57;;;;;;;5.10;3.50;;;;;;;;;;5073710;28;20221;-28
2023/06/15 00:32:25;;;;;;;5.93;2.93;;;;;;;;;;5087546;28;20204;-27
2023/06/15 00:34:52;;;;;;;3.57;3.20;;;;;;;;;;5084070;28;20211;-29
2023/06/15 00:37:19;;;;;;;3.23;2.93;;;;;;;;;;5073035;28;20204;-29
2023/06/15 00:39:46;;;;;;;3.13;2.93;;;;;;;;;;5080995;28;20213;-29
2023/06/15 00:42:14;;;;;;;4.93;3.30;;;;;;;;;;5092015;28;20833;-29
2023/06/15 00:44:42;;;;;;;3.13;2.83;;;;;;;;;;5075322;28;20211;-26
2023/06/15 00:47:10;;;;;;;3.00;2.80;;;;;;;;;;5071271;28;20204;-31
2023/06/15 00:49:37;;;;;;;3.27;2.97;;;;;;;;;;5085289;28;20232;-29
2023/06/15 00:52:05;;;;;;;3.40;3.07;;;;;;;;;;5072997;28;20737;-29
2023/06/15 00:54:33;;;;;;;5.37;3.13;;;;;;;;;;5083993;28;20203;-30
2023/06/15 00:57:01;;;;;;;3.50;3.03;;;;;;;;;;5087321;28;20279;-26
2023/06/15 00:59:29;;;;;;;4.07;3.50;;;;;;;;;;5088500;28;20215;-30
2023/06/15 01:01:56;;;;;;;3.93;3.20;;;;;;;;;;5090693;28;20233;-25
2023/06/15 01:04:25;;;;;;;3.83;3.23;;;;;;;;;;5077364;28;20216;-29
2023/06/15 01:06:56;;;;;;;3.37;2.90;;;;;;;;;;5091583;28;20249;-28
2023/06/15 01:09:24;;;;;;;3.40;3.10;;;;;;;;;;5081140;28;20224;-25
2023/06/15 01:11:52;;;;;;;4.03;2.70;;;;;;;;;;5089766;28;20258;-29
2023/06/15 01:14:20;;;;;;;3.17;2.83;;;;;;;;;;5084151;28;20204;-28
2023/06/15 01:16:52;;;;;;;3.20;3.00;;;;;;;;;;5086818;28;20204;-30
2023/06/15 01:19:29;;;;;;;3.63;3.33;;;;;;;;;;5083330;28;20208;-29
2023/06/15 01:21:58;;;;;;;3.20;2.90;;;;;;;;;;5078067;28;20224;-27
2023/06/15 01:24:32;;;;;;;5.03;3.63;;;;;;;;;;5089185;28;20222;-28
2023/06/15 01:27:04;;;;;;;3.67;3.10;;;;;;;;;;5090435;28;20670;-26
2023/06/15 01:29:35;;;;;;;4.03;3.47;;;;;;;;;;5086051;28;20195;-30
2023/06/15 01:32:02;;;;;;;4.17;3.43;;;;;;;;;;5093961;28;20258;-27
2023/06/15 01:34:29;;;;;;;4.20;3.80;;;;;;;;;;5097698;28;20196;-32
2023/06/15 01:36:56;;;;;;;4.63;3.60;;;;;;;;;;5082819;28;20203;-25
2023/06/15 01:39:24;;;;;;;3.77;3.40;;;;;;;;;;5087333;28;20198;-27
2023/06/15 01:41:51;;;;;;;9.20;3.40;;;;;;;;;;5084930;28;20230;-26
2023/06/15 01:44:20;;;;;;;3.97;3.57;;;;;;;;;;5095968;28;20221;-25
2023/06/15 01:46:47;;;;;;;5.03;3.20;;;;;;;;;;5076545;28;20209;-29
2023/06/15 01:49:14;;;;;;;3.67;3.30;;;;;;;;;;5076536;28;20204;-27
2023/06/15 01:51:43;;;;;;;3.40;3.10;;;;;;;;;;5094580;28;20227;-29
2023/06/15 01:54:10;;;;;;;5.70;3.83;;;;;;;;;;5093140;28;20207;-29
2023/06/15 01:56:38;;;;;;;4.00;3.70;;;;;;;;;;5102177;28;20203;-27
2023/06/15 01:59:05;;;;;;;3.70;3.40;;;;;;;;;;5083526;28;20200;-27
2023/06/15 02:01:33;;;;;;;3.60;3.33;;;;;;;;;;5076260;28;20220;-26
2023/06/15 02:04:00;;;;;;;4.13;3.60;;;;;;;;;;5079127;28;20191;-28
2023/06/15 02:06:28;;;;;;;4.00;3.70;;;;;;;;;;5088819;28;20229;-25
2023/06/15 02:08:55;;;;;;;3.93;3.60;;;;;;;;;;5091905;28;20200;-26
2023/06/15 02:11:22;;;;;;;3.80;3.17;;;;;;;;;;5096763;28;20233;-27
2023/06/15 02:13:49;;;;;;;4.03;2.97;;;;;;;;;;5091476;28;20290;-28
2023/06/15 02:16:19;;;;;;;4.83;2.93;;;;;;;;;;5094653;28;20232;-28
2023/06/15 02:18:48;;;;;;;3.27;2.97;;;;;;;;;;5083761;28;20217;-27
2023/06/15 02:21:15;;;;;;;3.70;3.40;;;;;;;;;;5099452;28;20259;-27
2023/06/15 02:23:43;;;;;;;3.97;3.60;;;;;;;;;;5086990;28;20207;-29
2023/06/15 02:26:10;;;;;;;3.63;3.33;;;;;;;;;;5093252;28;20236;-26
2023/06/15 02:28:37;;;;;;;3.83;3.17;;;;;;;;;;5076168;28;20203;-27
2023/06/15 02:31:04;;;;;;;3.63;3.33;;;;;;;;;;5073121;28;20314;-25
2023/06/15 02:33:32;;;;;;;3.87;3.17;;;;;;;;;;5085724;28;20634;-29
2023/06/15 02:36:01;;;;;;;3.33;2.90;;;;;;;;;;5090676;28;20214;-30
2023/06/15 02:38:28;;;;;;;3.47;3.17;;;;;;;;;;5088385;28;20209;-25
2023/06/15 02:40:55;;;;;;;4.27;3.10;;;;;;;;;;5090698;28;20214;-26
2023/06/15 02:43:22;;;;;;;2.80;2.60;;;;;;;;;;5080946;28;20191;-27
2023/06/15 02:45:50;;;;;;;3.50;3.07;;;;;;;;;;5075088;28;20227;-29
2023/06/15 02:48:17;;;;;;;3.50;3.20;;;;;;;;;;5082502;28;20211;-27
2023/06/15 02:50:44;;;;;;;3.30;3.00;;;;;;;;;;5088098;28;20231;-29
2023/06/15 02:53:12;;;;;;;5.07;3.40;;;;;;;;;;5085021;28;20211;-29
2023/06/15 02:55:41;;;;;;;3.30;3.10;;;;;;;;;;5099971;28;20203;-30
2023/06/15 02:58:08;;;;;;;3.97;3.00;;;;;;;;;;5078988;28;20229;-27
2023/06/15 03:00:36;;;;;;;2.80;2.60;;;;;;;;;;5094200;28;20223;-28
2023/06/15 03:03:03;;;;;;;3.97;2.97;;;;;;;;;;5094078;28;20198;-26
2023/06/15 03:05:32;;;;;;;3.23;2.93;;;;;;;;;;5086396;28;20217;-27
2023/06/15 03:08:00;;;;;;;4.53;3.03;;;;;;;;;;5072746;28;20462;-27
2023/06/15 03:10:28;;;;;;;5.70;3.50;;;;;;;;;;5081010;28;20401;-28
2023/06/15 03:12:55;;;;;;;3.60;3.30;;;;;;;;;;5077370;28;20205;-29
2023/06/15 03:15:23;;;;;;;3.70;3.10;;;;;;;;;;5092148;28;20202;-27
2023/06/15 03:17:51;;;;;;;3.33;3.00;;;;;;;;;;5086696;28;20208;-30
2023/06/15 03:20:18;;;;;;;3.30;2.90;;;;;;;;;;5084228;28;20239;-29
2023/06/15 03:22:48;;;;;;;2.80;2.60;;;;;;;;;;5088182;28;20252;-29
2023/06/15 03:25:15;;;;;;;3.60;3.30;;;;;;;;;;5100262;28;20222;-28
2023/06/15 03:27:43;;;;;;;3.20;2.90;;;;;;;;;;5084980;28;20224;-28
2023/06/15 03:30:11;;;;;;;2.67;2.47;;;;;;;;;;5072787;28;20239;-28
2023/06/15 03:32:38;;;;;;;3.47;3.10;;;;;;;;;;5084913;28;20201;-26
2023/06/15 03:35:06;;;;;;;3.17;2.67;;;;;;;;;;5086745;28;20253;-28
2023/06/15 03:37:33;;;;;;;3.30;2.77;;;;;;;;;;5079551;28;20209;-30
2023/06/15 03:40:00;;;;;;;7.23;3.00;;;;;;;;;;5088724;28;20579;-26
2023/06/15 03:42:27;;;;;;;3.87;3.27;;;;;;;;;;5089627;28;20211;-27
2023/06/15 03:44:56;;;;;;;3.80;3.27;;;;;;;;;;5074483;28;20214;-25
2023/06/15 03:47:23;;;;;;;5.93;3.40;;;;;;;;;;5077434;28;20203;-28
2023/06/15 03:49:50;;;;;;;4.10;3.13;;;;;;;;;;5191975;22;20216;-33
2023/06/15 03:52:17;;;;;;;3.53;3.23;;;;;;;;;;5051304;28;20272;-32
2023/06/15 03:54:44;;;;;;;4.77;3.17;;;;;;;;;;5040608;28;20301;-33
2023/06/15 03:57:11;;;;;;;3.50;3.20;;;;;;;;;;5044499;28;20208;-33
2023/06/15 03:59:39;;;;;;;3.93;3.03;;;;;;;;;;5050734;28;20590;-31
2023/06/15 04:02:08;;;;;;;3.23;2.93;;;;;;;;;;5042380;28;20201;-30
2023/06/15 04:04:35;;;;;;;3.27;2.97;;;;;;;;;;5018112;28;20247;-28
2023/06/15 04:07:02;;;;;;;4.47;3.47;;;;;;;;;;5046182;28;20234;-36
2023/06/15 04:09:29;;;;;;;3.37;3.07;;;;;;;;;;5033826;28;20212;-35
2023/06/15 04:11:56;;;;;;;4.23;2.67;;;;;;;;;;5033372;28;20221;-33
2023/06/15 04:14:24;;;;;;;4.20;3.33;;;;;;;;;;5049894;28;20195;-29
2023/06/15 04:16:51;;;;;;;3.30;3.00;;;;;;;;;;5042511;28;20211;-31
2023/06/15 04:19:22;;;;;;;3.57;3.27;;;;;;;;;;5037922;28;20236;-33
2023/06/15 04:21:49;;;;;;;3.80;3.40;;;;;;;;;;5042240;28;20220;-30
2023/06/15 04:24:16;;;;;;;3.73;3.33;;;;;;;;;;5028194;28;20219;-31
2023/06/15 04:26:43;;;;;;;4.00;3.10;;;;;;;;;;5041978;28;20697;-32
2023/06/15 04:29:11;;;;;;;3.23;2.93;;;;;;;;;;5046963;28;20514;-34
2023/06/15 04:31:39;;;;;;;3.57;3.27;;;;;;;;;;5042041;28;20569;-29
2023/06/15 04:34:07;;;;;;;4.13;2.80;;;;;;;;;;5026293;28;20202;-34
2023/06/15 04:36:44;;;;;;;3.80;3.30;;;;;;;;;;5029446;28;20254;-34
2023/06/15 04:39:12;;;;;;;3.87;3.43;;;;;;;;;;5024156;28;20218;-36
2023/06/15 04:41:39;;;;;;;3.17;2.97;;;;;;;;;;5040030;28;20705;-33
2023/06/15 04:44:06;;;;;;;4.00;3.70;;;;;;;;;;5033088;28;20234;-33
2023/06/15 04:46:36;;;;;;;3.50;3.20;;;;;;;;;;5031766;28;20232;-36
2023/06/15 04:49:03;;;;;;;4.33;3.50;;;;;;;;;;5032703;28;20242;-31
2023/06/15 04:51:30;;;;;;;3.77;3.47;;;;;;;;;;5048603;28;20314;-32
2023/06/15 04:53:57;;;;;;;3.33;3.00;;;;;;;;;;5023399;28;20208;-34
2023/06/15 04:56:26;;;;;;;4.20;3.50;;;;;;;;;;5105658;22;20362;-24
2023/06/15 04:58:53;;;;;;;3.93;3.33;;;;;;;;;;5109333;28;20229;-25
2023/06/15 05:01:20;;;;;;;3.40;3.10;;;;;;;;;;5095940;28;20232;-25
2023/06/15 05:03:47;;;;;;;4.23;3.77;;;;;;;;;;5084236;28;20213;-26
2023/06/15 05:06:14;;;;;;;5.27;3.27;;;;;;;;;;5089491;28;20230;-23
2023/06/15 05:08:41;;;;;;;4.33;3.53;;;;;;;;;;5083906;28;20682;-25
2023/06/15 05:11:08;;;;;;;4.20;3.47;;;;;;;;;;5082711;28;20718;-24
2023/06/15 05:13:37;;;;;;;5.23;3.83;;;;;;;;;;5090632;28;20294;-29
2023/06/15 05:16:04;;;;;;;5.40;3.83;;;;;;;;;;5084854;28;20208;-27
2023/06/15 05:18:31;;;;;;;3.90;3.60;;;;;;;;;;5084983;28;20211;-29
2023/06/15 05:20:58;;;;;;;4.70;3.60;;;;;;;;;;5089393;28;20211;-25
2023/06/15 05:23:26;;;;;;;3.80;3.43;;;;;;;;;;5081938;28;20216;-26
2023/06/15 05:25:53;;;;;;;5.07;3.43;;;;;;;;;;5081857;28;20230;-26
2023/06/15 05:28:20;;;;;;;3.97;3.60;;;;;;;;;;5089562;28;20218;-27
2023/06/15 05:30:49;;;;;;;6.17;3.97;;;;;;;;;;5085518;28;20286;-26
2023/06/15 05:33:17;;;;;;;4.17;3.80;;;;;;;;;;5082662;28;20222;-26
2023/06/15 05:35:44;;;;;;;3.63;3.33;;;;;;;;;;5089473;28;20204;-25
2023/06/15 05:38:12;;;;;;;3.90;3.60;;;;;;;;;;5084699;28;20208;-24
2023/06/15 05:40:39;;;;;;;4.13;3.80;;;;;;;;;;5075841;28;20227;-27
2023/06/15 05:43:06;;;;;;;5.40;3.70;;;;;;;;;;5074097;28;20642;-26
2023/06/15 05:58:57;;;;;;;5.22;4.78;;;;;;;;;;5108615;27;20553;-33
2023/06/15 06:01:35;;;;;;;5.63;5.10;;;;;;;;;;5089909;28;20204;-30
2023/06/15 06:04:02;;;;;;;5.63;5.07;;;;;;;;;;5073350;28;20204;-32
2023/06/15 06:06:29;;;;;;;4.65;4.32;;;;;;;;;;5090072;28;20228;-31
2023/06/15 06:08:56;;;;;;;4.72;4.30;;;;;;;;;;5075612;28;20319;-28
2023/06/15 06:11:23;;;;;;;4.43;3.92;;;;;;;;;;5073855;28;20208;-30
2023/06/15 06:13:50;;;;;;;4.38;3.95;;;;;;;;;;5064478;28;20206;-34
2023/06/15 06:16:19;;;;;;;6.97;4.15;;;;;;;;;;5049517;28;20203;-35
2023/06/15 06:18:46;;;;;;;5.78;4.38;;;;;;;;;;5063090;28;20252;-34
2023/06/15 06:21:13;;;;;;;3.92;3.42;;;;;;;;;;5084301;28;20202;-36
2023/06/15 06:23:40;;;;;;;4.55;3.90;;;;;;;;;;5057618;28;20202;-32
2023/06/15 06:26:07;;;;;;;4.15;3.65;;;;;;;;;;5062371;28;20212;-36
2023/06/15 06:28:35;;;;;;;6.23;4.50;;;;;;;;;;5079591;28;20688;-32
2023/06/15 06:31:02;;;;;;;4.20;3.80;;;;;;;;;;5068294;28;20591;-36
2023/06/15 06:33:30;;;;;;;4.72;4.32;;;;;;;;;;5065303;28;20316;-33
2023/06/15 06:35:57;;;;;;;4.45;3.45;;;;;;;;;;5076920;28;20201;-34
2023/06/15 06:38:24;;;;;;;4.22;3.47;;;;;;;;;;5076609;28;20229;-30
2023/06/15 06:40:51;;;;;;;7.68;3.75;;;;;;;;;;5054816;28;20214;-30
2023/06/15 06:43:19;;;;;;;3.63;3.42;;;;;;;;;;5065043;28;20206;-32
2023/06/15 06:45:46;;;;;;;3.40;3.10;;;;;;;;;;5065931;28;20209;-36
2023/06/15 06:48:13;;;;;;;4.68;3.38;;;;;;;;;;5060733;28;20214;-31
2023/06/15 06:50:41;;;;;;;4.40;3.42;;;;;;;;;;5074231;28;20205;-38
2023/06/15 06:53:08;;;;;;;3.30;3.10;;;;;;;;;;5078133;28;20221;-31
2023/06/15 06:55:36;;;;;;;5.07;3.33;;;;;;;;;;5050924;28;20203;-31
2023/06/15 06:58:03;;;;;;;3.78;3.47;;;;;;;;;;5074579;28;20205;-31
2023/06/15 07:00:30;;;;;;;3.70;3.38;;;;;;;;;;5075856;28;20218;-36
2023/06/15 07:02:58;;;;;;;4.18;3.78;;;;;;;;;;5045328;28;20213;-37
2023/06/15 07:05:25;;;;;;;4.07;3.03;;;;;;;;;;5057750;28;20574;-35
2023/06/15 07:07:53;;;;;;;3.95;3.40;;;;;;;;;;5068683;28;20309;-37
2023/06/15 07:10:21;;;;;;;3.88;3.58;;;;;;;;;;5046931;28;20216;-36
2023/06/15 07:12:48;;;;;;;3.75;2.97;;;;;;;;;;5068429;28;20332;-32
2023/06/15 07:15:15;;;;;;;5.78;3.22;;;;;;;;;;5052200;28;20209;-34
2023/06/15 07:17:42;;;;;;;4.18;3.20;;;;;;;;;;5043980;28;20203;-32
2023/06/15 07:20:10;;;;;;;3.30;3.00;;;;;;;;;;5046337;28;20702;-32
2023/06/15 07:22:37;;;;;;;4.18;3.30;;;;;;;;;;5069365;28;20203;-34
2023/06/15 07:25:06;;;;;;;3.17;2.85;;;;;;;;;;5045142;28;20222;-37
2023/06/15 07:27:33;;;;;;;3.58;2.83;;;;;;;;;;5055963;28;20215;-31
2023/06/15 07:30:00;;;;;;;5.28;3.45;;;;;;;;;;5050887;28;20222;-28
2023/06/15 07:32:27;;;;;;;3.58;3.10;;;;;;;;;;5052534;28;20578;-30
2023/06/15 07:34:55;;;;;;;3.75;2.97;;;;;;;;;;5045722;28;20255;-33
2023/06/15 07:37:22;;;;;;;4.50;2.97;;;;;;;;;;5058150;28;20500;-33
2023/06/15 07:39:49;;;;;;;3.60;3.15;;;;;;;;;;5044275;28;20516;-35
2023/06/15 07:42:17;;;;;;;4.07;3.10;;;;;;;;;;5055714;28;20201;-31
2023/06/15 07:44:44;;;;;;;3.60;3.30;;;;;;;;;;5052995;28;20216;-35
2023/06/15 07:47:11;;;;;;;3.95;2.72;;;;;;;;;;5051970;28;20226;-40
2023/06/15 07:49:39;;;;;;;4.63;3.08;;;;;;;;;;5049585;28;20230;-35
2023/06/15 07:52:06;;;;;;;4.80;3.28;;;;;;;;;;5051181;28;20209;-32
2023/06/15 07:54:34;;;;;;;3.50;3.17;;;;;;;;;;5036784;28;20367;-36
2023/06/15 07:57:01;;;;;;;4.82;3.45;;;;;;;;;;5054598;28;20664;-37
2023/06/15 07:59:31;;;;;;;4.15;2.90;;;;;;;;;;5055705;28;20224;-29
2023/06/15 08:01:58;;;;;;;6.28;2.90;;;;;;;;;;5051571;28;20235;-35
2023/06/15 08:04:25;;;;;;;3.67;2.78;;;;;;;;;;5065266;28;20204;-36
2023/06/15 08:06:52;;;;;;;5.55;2.50;;;;;;;;;;5062880;28;20204;-34
2023/06/15 08:09:19;;;;;;;3.58;3.28;;;;;;;;;;5049565;28;20685;-33
2023/06/15 08:11:47;;;;;;;4.13;2.90;;;;;;;;;;5050263;28;20653;-32
2023/06/15 08:14:15;;;;;;;3.00;2.80;;;;;;;;;;5046280;28;20291;-30
2023/06/15 08:16:43;;;;;;;5.63;3.10;;;;;;;;;;5046415;28;20209;-35
2023/06/15 08:19:10;;;;;;;3.85;3.60;;;;;;;;;;5046931;28;20235;-36
2023/06/15 08:21:41;;;;;;;5.25;3.78;;;;;;;;;;5062988;28;20230;-34
2023/06/15 08:24:08;;;;;;;3.83;3.20;;;;;;;;;;5041986;28;20209;-32
2023/06/15 08:26:35;;;;;;;3.67;3.38;;;;;;;;;;5049470;28;20214;-35
2023/06/15 08:29:02;;;;;;;3.72;3.10;;;;;;;;;;5055294;28;20232;-33
2023/06/15 08:31:30;;;;;;;3.55;3.25;;;;;;;;;;5059975;28;20205;-33
2023/06/15 08:33:58;;;;;;;6.13;3.28;;;;;;;;;;5042079;28;20258;-36
2023/06/15 08:36:25;;;;;;;3.38;3.15;;;;;;;;;;5052633;28;20568;-34
2023/06/15 08:38:52;;;;;;;6.47;4.60;;;;;;;;;;5043515;28;20256;-38
2023/06/15 08:41:21;;;;;;;3.72;3.42;;;;;;;;;;5055471;28;20205;-31
2023/06/15 08:43:48;;;;;;;3.88;3.17;;;;;;;;;;5061776;28;20220;-40
2023/06/15 08:46:15;;;;;;;11.88;9.48;;;;;;;;;;5055267;28;20713;-39
2023/06/15 08:48:44;;;;;;;5.03;3.17;;;;;;;;;;5064831;28;20232;-35
2023/06/15 08:51:13;;;;;;;5.72;4.85;;;;;;;;;;5067176;28;20243;-32
2023/06/15 08:53:41;;;;;;;10.30;7.47;;;;;;;;;;5042904;28;20205;-37
2023/06/15 08:56:11;;;;;;;4.25;3.60;;;;;;;;;;5046490;28;20205;-32
2023/06/15 08:58:38;;;;;;;5.40;3.10;;;;;;;;;;5066619;28;20591;-37
2023/06/15 09:01:06;;;;;;;3.90;2.97;;;;;;;;;;5067698;28;20668;-36
2023/06/15 09:03:34;;;;;;;3.88;3.00;;;;;;;;;;5046724;28;20208;-34
2023/06/15 09:06:01;;;;;;;5.10;3.20;;;;;;;;;;5049814;28;20204;-37
2023/06/15 09:08:30;;;;;;;2.90;2.60;;;;;;;;;;5050333;28;20231;-33
2023/06/15 09:11:06;;;;;;;2.80;2.55;;;;;;;;;;5052723;28;20219;-32
2023/06/15 09:13:34;;;;;;;4.38;2.92;;;;;;;;;;5054337;28;20205;-38
2023/06/15 09:16:02;;;;;;;3.00;2.72;;;;;;;;;;5049971;28;20213;-35
2023/06/15 09:18:31;;;;;;;7.55;3.00;;;;;;;;;;5041901;28;20228;-38
2023/06/15 09:20:59;;;;;;;4.55;3.17;;;;;;;;;;5068038;28;20207;-34
2023/06/15 09:23:26;;;;;;;3.08;2.70;;;;;;;;;;5028239;28;20254;-40
2023/06/15 09:25:56;;;;;;;3.38;2.90;;;;;;;;;;5041885;28;20209;-35
2023/06/15 09:28:23;;;;;;;5.22;2.92;;;;;;;;;;5060954;28;20227;-40
2023/06/15 09:30:54;;;;;;;3.92;2.85;;;;;;;;;;5071998;28;20222;-31
2023/06/15 09:33:21;;;;;;;3.20;2.53;;;;;;;;;;5048114;28;20213;-34
2023/06/15 09:35:56;;;;;;;3.45;2.30;;;;;;;;;;5068057;28;20218;-33
2023/06/15 09:38:24;;;;;;;2.35;2.08;;;;;;;;;;5058654;28;20279;-35
2023/06/15 09:40:51;;;;;;;3.88;2.78;;;;;;;;;;5037872;28;20282;-31
2023/06/15 09:43:21;;;;;;;4.15;2.63;;;;;;;;;;5050325;28;20202;-36
2023/06/15 09:45:51;;;;;;;2.95;2.65;;;;;;;;;;5069761;28;20215;-35
2023/06/15 09:48:18;;;;;;;2.85;2.38;;;;;;;;;;5058788;28;20231;-34
2023/06/15 09:50:50;;;;;;;2.83;2.63;;;;;;;;;;5043189;28;20216;-37
2023/06/15 09:53:18;;;;;;;4.22;3.20;;;;;;;;;;5052672;28;20253;-38
2023/06/15 09:58:13;;;;;;;3.78;2.83;;;;;;;;;;5031985;28;20348;-36
2023/06/15 10:00:43;;;;;;;3.17;2.83;;;;;;;;;;5011671;28;20212;-28
2023/06/15 10:03:11;;;;;;;3.38;3.08;;;;;;;;;;5020659;28;20202;-31
2023/06/15 10:05:43;;;;;;;2.95;2.70;;;;;;;;;;5011955;28;20213;-29
2023/06/15 10:08:12;;;;;;;3.35;3.00;;;;;;;;;;5008953;28;20251;-33
2023/06/15 10:10:42;;;;;;;7.10;2.95;;;;;;;;;;5026328;28;20262;-30
2023/06/15 10:13:11;;;;;;;3.05;2.55;;;;;;;;;;5019456;28;20296;-37
2023/06/15 10:15:39;;;;;;;3.63;3.00;;;;;;;;;;5011534;28;20217;-35
2023/06/15 10:18:10;;;;;;;3.30;2.45;;;;;;;;;;5014110;28;20294;-31
2023/06/15 10:20:37;;;;;;;4.05;2.92;;;;;;;;;;5031119;28;20323;-33
2023/06/15 10:23:07;;;;;;;3.83;2.58;;;;;;;;;;5028097;28;20577;-30
2023/06/15 10:25:35;;;;;;;3.28;2.65;;;;;;;;;;5025495;28;20219;-28
2023/06/15 10:28:09;;;;;;;4.63;2.83;;;;;;;;;;5023594;28;20227;-32
2023/06/15 10:30:40;;;;;;;2.80;2.60;;;;;;;;;;5032573;28;20197;-29
2023/06/15 10:33:12;;;;;;;3.03;2.83;;;;;;;;;;5029391;28;20201;-28
2023/06/15 10:35:41;;;;;;;3.33;3.03;;;;;;;;;;5034223;28;20205;-28
2023/06/15 10:38:16;;;;;;;3.60;2.80;;;;;;;;;;5014776;28;20224;-30
2023/06/15 10:40:44;;;;;;;3.80;2.60;;;;;;;;;;5021568;28;20197;-31
2023/06/15 10:43:18;;;;;;;4.82;3.00;;;;;;;;;;5026342;28;20614;-31
2023/06/15 10:45:45;;;;;;;3.80;2.90;;;;;;;;;;5015911;28;20259;-33
2023/06/15 10:48:21;;;;;;;3.20;2.90;;;;;;;;;;5014631;28;20252;-31
2023/06/15 10:50:50;;;;;;;3.42;3.05;;;;;;;;;;5015589;28;20205;-28
2023/06/15 10:53:24;;;;;;;4.15;3.17;;;;;;;;;;5023903;28;20213;-30
2023/06/15 10:55:55;;;;;;;3.30;3.00;;;;;;;;;;5020680;28;20660;-32
2023/06/15 10:58:24;;;;;;;5.70;2.90;;;;;;;;;;5028581;28;20225;-29
2023/06/15 11:01:05;;;;;;;3.35;2.88;;;;;;;;;;5016179;28;20277;-35
2023/06/15 11:03:34;;;;;;;2.83;2.63;;;;;;;;;;5027135;28;20208;-34
2023/06/15 11:06:02;;;;;;;2.97;2.70;;;;;;;;;;5023232;28;20208;-35
2023/06/15 11:08:31;;;;;;;4.22;3.00;;;;;;;;;;5021056;28;20239;-35
2023/06/15 11:10:59;;;;;;;4.13;2.70;;;;;;;;;;5017464;28;20209;-31
2023/06/15 11:13:26;;;;;;;5.47;2.72;;;;;;;;;;5023226;28;20207;-30
2023/06/15 11:16:09;;;;;;;5.65;2.83;;;;;;;;;;5015695;28;20218;-32
2023/06/15 11:18:38;;;;;;;3.13;2.65;;;;;;;;;;5017059;28;20230;-32
2023/06/15 11:21:05;;;;;;;2.53;2.38;;;;;;;;;;5027337;28;20205;-35
2023/06/15 11:23:33;;;;;;;4.00;2.80;;;;;;;;;;5028074;28;20205;-31
2023/06/15 11:26:02;;;;;;;2.75;2.55;;;;;;;;;;5026295;28;20666;-35
2023/06/15 11:28:33;;;;;;;3.15;2.85;;;;;;;;;;5018925;28;20233;-27
2023/06/15 11:31:01;;;;;;;2.63;2.40;;;;;;;;;;5014289;28;20197;-35
2023/06/15 11:33:28;;;;;;;2.63;2.25;;;;;;;;;;5030665;28;20209;-33
2023/06/15 11:35:57;;;;;;;2.83;2.50;;;;;;;;;;5034382;28;21887;-34
2023/06/15 11:38:26;;;;;;;4.15;2.40;;;;;;;;;;5028873;28;20225;-29
2023/06/15 11:40:53;;;;;;;2.78;2.50;;;;;;;;;;5017200;28;20209;-33
2023/06/15 11:43:21;;;;;;;2.75;2.50;;;;;;;;;;5020994;28;20221;-37
2023/06/15 11:45:48;;;;;;;3.13;2.65;;;;;;;;;;5015691;28;20536;-33
2023/06/15 11:48:15;;;;;;;3.63;2.65;;;;;;;;;;5020132;28;20236;-31
2023/06/15 11:50:43;;;;;;;3.08;2.50;;;;;;;;;;5027107;28;20201;-31
2023/06/15 11:53:17;;;;;;;4.22;2.20;;;;;;;;;;5031222;28;20658;-30
2023/06/15 11:55:44;;;;;;;3.38;2.95;;;;;;;;;;5026752;28;20201;-37
2023/06/15 11:58:11;;;;;;;2.95;2.50;;;;;;;;;;5029256;28;20222;-30
2023/06/15 12:00:39;;;;;;;3.25;2.75;;;;;;;;;;5015480;28;20224;-28
2023/06/15 12:03:10;;;;;;;2.60;2.40;;;;;;;;;;5030536;28;20214;-28
2023/06/15 12:05:37;;;;;;;2.20;2.10;;;;;;;;;;5023210;28;20201;-30
2023/06/15 12:08:06;;;;;;;2.95;2.75;;;;;;;;;;5029643;28;20223;-34
2023/06/15 12:10:34;;;;;;;3.42;2.53;;;;;;;;;;5014764;28;20217;-35
2023/06/15 12:13:02;;;;;;;3.20;2.58;;;;;;;;;;5026055;28;20203;-33
2023/06/15 12:15:30;;;;;;;5.78;2.70;;;;;;;;;;5034307;28;20209;-28
2023/06/15 12:17:59;;;;;;;3.22;2.92;;;;;;;;;;5025991;28;20219;-32
2023/06/15 12:20:29;;;;;;;2.83;2.63;;;;;;;;;;5019323;28;20205;-30
2023/06/15 12:22:56;;;;;;;3.13;2.88;;;;;;;;;;5028588;28;20209;-30
2023/06/15 12:25:44;;;;;;;3.85;2.63;;;;;;;;;;5017683;28;20216;-35
2023/06/15 12:28:15;;;;;;;2.63;2.42;;;;;;;;;;5015735;28;20202;-35
2023/06/15 12:30:43;;;;;;;2.55;2.35;;;;;;;;;;5034119;28;20204;-30
2023/06/15 12:33:24;;;;;;;3.40;3.10;;;;;;;;;;5013352;28;20216;-32
2023/06/15 12:35:52;;;;;;;2.72;2.53;;;;;;;;;;5013717;28;20653;-29
2023/06/15 12:38:19;;;;;;;3.70;2.80;;;;;;;;;;5011790;28;20237;-28
2023/06/15 12:40:48;;;;;;;3.10;2.65;;;;;;;;;;5018965;28;20211;-34
2023/06/15 12:43:17;;;;;;;5.53;2.85;;;;;;;;;;5021837;28;20205;-32
2023/06/15 12:45:44;;;;;;;4.18;3.03;;;;;;;;;;5013991;28;20206;-31
2023/06/15 12:48:11;;;;;;;3.72;2.60;;;;;;;;;;5021644;28;20211;-34
2023/06/15 12:50:38;;;;;;;2.60;2.40;;;;;;;;;;5031646;28;20235;-31
2023/06/15 12:53:06;;;;;;;4.75;2.70;;;;;;;;;;5028673;28;20210;-32
2023/06/15 12:55:33;;;;;;;3.00;2.80;;;;;;;;;;5017715;28;20206;-31
2023/06/15 12:58:01;;;;;;;2.70;2.50;;;;;;;;;;5023115;28;20235;-28
2023/06/15 13:00:29;;;;;;;2.78;2.58;;;;;;;;;;5031559;28;20208;-34
2023/06/15 13:02:57;;;;;;;3.28;2.80;;;;;;;;;;5025894;28;20220;-33
2023/06/15 13:05:24;;;;;;;3.30;3.00;;;;;;;;;;5024958;28;20234;-35
2023/06/15 13:07:52;;;;;;;3.33;3.03;;;;;;;;;;5029302;28;21038;-34
2023/06/15 13:10:19;;;;;;;4.22;2.60;;;;;;;;;;5017240;28;20415;-32
2023/06/15 13:12:47;;;;;;;2.47;2.28;;;;;;;;;;5022443;28;20205;-34
2023/06/15 13:15:15;;;;;;;2.80;2.60;;;;;;;;;;5033068;28;20205;-31
2023/06/15 13:17:43;;;;;;;4.40;2.22;;;;;;;;;;5028974;28;20213;-34
2023/06/15 13:20:11;;;;;;;3.25;2.97;;;;;;;;;;5023699;28;20234;-35
2023/06/15 13:22:38;;;;;;;2.92;2.60;;;;;;;;;;5021433;28;20215;-34
2023/06/15 13:25:06;;;;;;;2.88;2.67;;;;;;;;;;5017917;28;20214;-35
2023/06/15 13:27:37;;;;;;;2.72;2.50;;;;;;;;;;5020615;28;20213;-31
2023/06/15 13:30:05;;;;;;;3.28;2.70;;;;;;;;;;5018797;28;20226;-32
2023/06/15 13:32:33;;;;;;;3.40;2.83;;;;;;;;;;5029803;28;20215;-35
2023/06/15 13:35:01;;;;;;;3.03;2.58;;;;;;;;;;5014086;28;20668;-31
2023/06/15 13:37:28;;;;;;;3.47;2.60;;;;;;;;;;5014009;28;20213;-29
2023/06/15 13:39:55;;;;;;;6.28;2.97;;;;;;;;;;5016408;28;20225;-30
2023/06/15 13:42:22;;;;;;;3.08;2.58;;;;;;;;;;5013195;28;20214;-31
2023/06/15 13:44:49;;;;;;;3.00;2.65;;;;;;;;;;5012755;28;20209;-31
2023/06/15 13:47:23;;;;;;;3.17;2.88;;;;;;;;;;5012114;28;20212;-30
2023/06/15 13:49:52;;;;;;;2.90;2.70;;;;;;;;;;5017300;28;20236;-33
2023/06/15 13:52:19;;;;;;;3.40;2.63;;;;;;;;;;5023440;28;20218;-32
2023/06/15 13:54:46;;;;;;;3.25;2.92;;;;;;;;;;5017539;28;20300;-36
2023/06/15 13:57:13;;;;;;;3.55;3.05;;;;;;;;;;5012761;28;20214;-33
2023/06/15 13:59:40;;;;;;;2.97;2.78;;;;;;;;;;5012556;28;20255;-35
2023/06/15 14:02:09;;;;;;;4.80;2.80;;;;;;;;;;5014246;28;20201;-34
2023/06/15 14:04:36;;;;;;;2.72;2.53;;;;;;;;;;5029301;28;20212;-31
2023/06/15 14:07:06;;;;;;;2.50;2.30;;;;;;;;;;5032273;28;20228;-36
2023/06/15 14:09:33;;;;;;;2.63;2.42;;;;;;;;;;5026090;28;20575;-29
2023/06/15 14:12:00;;;;;;;3.83;2.50;;;;;;;;;;5027400;28;20579;-29
2023/06/15 14:14:27;;;;;;;2.92;2.25;;;;;;;;;;5020979;28;20205;-35
2023/06/15 14:16:55;;;;;;;3.25;2.88;;;;;;;;;;5016166;28;20210;-28
2023/06/15 14:19:23;;;;;;;2.67;2.47;;;;;;;;;;5015206;28;20272;-37
2023/06/15 14:21:50;;;;;;;3.00;2.40;;;;;;;;;;5019387;28;20291;-29
2023/06/15 14:24:19;;;;;;;3.03;2.72;;;;;;;;;;5028414;28;20208;-31
2023/06/15 14:26:46;;;;;;;2.95;2.75;;;;;;;;;;5018552;28;20722;-37
2023/06/15 14:29:15;;;;;;;2.90;2.55;;;;;;;;;;5015555;28;20241;-32
2023/06/15 14:31:45;;;;;;;4.88;2.92;;;;;;;;;;5018449;28;20206;-32
2023/06/15 14:34:13;;;;;;;2.55;2.38;;;;;;;;;;5022348;28;20216;-32
2023/06/15 14:36:40;;;;;;;2.25;2.05;;;;;;;;;;5032188;28;20216;-30
2023/06/15 14:39:08;;;;;;;2.35;2.25;;;;;;;;;;5027340;28;20227;-32
2023/06/15 14:41:37;;;;;;;3.97;2.42;;;;;;;;;;5022537;28;20219;-34
2023/06/15 14:44:06;;;;;;;3.40;2.50;;;;;;;;;;5033793;28;20209;-32
2023/06/15 14:46:33;;;;;;;2.65;2.40;;;;;;;;;;5028841;28;20784;-32
2023/06/15 14:49:03;;;;;;;2.65;2.45;;;;;;;;;;5027325;28;20231;-31
2023/06/15 14:51:30;;;;;;;2.63;2.42;;;;;;;;;;5030677;28;20550;-28
2023/06/15 14:53:57;;;;;;;4.47;2.60;;;;;;;;;;5025997;28;20212;-34
2023/06/15 14:56:27;;;;;;;4.13;2.53;;;;;;;;;;5017201;28;20232;-31
2023/06/15 14:58:57;;;;;;;2.67;2.47;;;;;;;;;;5022767;28;20284;-36
2023/06/15 15:01:24;;;;;;;2.63;2.42;;;;;;;;;;5014691;28;20252;-33
2023/06/15 15:03:52;;;;;;;2.70;2.50;;;;;;;;;;5022093;28;20211;-31